sensor_id;sensor_type;location;lat;lon;timestamp;pressure;altitude;pressure_sealevel;temperature;humidity
21433;BME280;18592;49.708;10.900;2023-06-10T00:00:22;98358.38;;;21.81;40.15
21433;BME280;18592;49.708;10.900;2023-06-10T00:02:28;98362.97;;;21.77;40.39
21433;BME280;18592;49.708;10.900;2023-06-10T00:04:30;98363.63;;;21.74;40.23
21433;BME280;18592;49.708;10.900;2023-06-10T00:06:32;98363.47;;;21.71;40.16
21433;BME280;18592;49.708;10.900;2023-06-10T00:08:37;98355.00;;;21.67;40.40
21433;BME280;18592;49.708;10.900;2023-06-10T00:10:44;98350.91;;;21.65;40.50
21433;BME280;18592;49.708;10.900;2023-06-10T00:12:50;98353.03;;;21.59;40.64
21433;BME280;18592;49.708;10.900;2023-06-10T00:14:57;98359.22;;;21.56;40.50
21433;BME280;18592;49.708;10.900;2023-06-10T00:16:59;98352.72;;;21.52;40.69
21433;BME280;18592;49.708;10.900;2023-06-10T00:19:00;98356.16;;;21.49;40.71
21433;BME280;18592;49.708;10.900;2023-06-10T00:21:03;98361.50;;;21.45;40.73
21433;BME280;18592;49.708;10.900;2023-06-10T00:23:06;98353.06;;;21.42;41.01
21433;BME280;18592;49.708;10.900;2023-06-10T00:25:11;98350.91;;;21.39;40.66
21433;BME280;18592;49.708;10.900;2023-06-10T00:27:13;98354.34;;;21.36;40.80
21433;BME280;18592;49.708;10.900;2023-06-10T00:29:17;98352.22;;;21.33;40.75
21433;BME280;18592;49.708;10.900;2023-06-10T00:31:18;98357.28;;;21.31;40.68
21433;BME280;18592;49.708;10.900;2023-06-10T00:33:20;98355.97;;;21.28;40.80
21433;BME280;18592;49.708;10.900;2023-06-10T00:35:22;98359.72;;;21.24;40.89
21433;BME280;18592;49.708;10.900;2023-06-10T00:37:24;98363.16;;;21.21;40.92
21433;BME280;18592;49.708;10.900;2023-06-10T00:39:28;98365.78;;;21.17;41.00
21433;BME280;18592;49.708;10.900;2023-06-10T00:41:30;98364.47;;;21.15;40.84
21433;BME280;18592;49.708;10.900;2023-06-10T00:43:35;98367.38;;;21.10;40.96
21433;BME280;18592;49.708;10.900;2023-06-10T00:45:37;98363.31;;;21.07;41.00
21433;BME280;18592;49.708;10.900;2023-06-10T00:47:41;98361.97;;;21.05;41.14
21433;BME280;18592;49.708;10.900;2023-06-10T00:49:44;98365.38;;;21.02;41.10
21433;BME280;18592;49.708;10.900;2023-06-10T00:51:46;98376.28;;;20.98;41.05
21433;BME280;18592;49.708;10.900;2023-06-10T00:53:55;98353.97;;;20.95;41.40
21433;BME280;18592;49.708;10.900;2023-06-10T00:55:58;98362.91;;;20.92;41.15
21433;BME280;18592;49.708;10.900;2023-06-10T00:58:00;98361.63;;;20.89;41.20
21433;BME280;18592;49.708;10.900;2023-06-10T01:00:02;98370.56;;;20.86;41.51
21433;BME280;18592;49.708;10.900;2023-06-10T01:02:09;98358.50;;;20.82;41.24
21433;BME280;18592;49.708;10.900;2023-06-10T01:04:11;98368.28;;;20.79;41.56
21433;BME280;18592;49.708;10.900;2023-06-10T01:06:27;98357.84;;;20.76;41.63
21433;BME280;18592;49.708;10.900;2023-06-10T01:08:49;98358.81;;;20.72;41.56
21433;BME280;18592;49.708;10.900;2023-06-10T01:11:00;98362.22;;;20.69;41.45
21433;BME280;18592;49.708;10.900;2023-06-10T01:13:08;98368.06;;;20.67;41.62
21433;BME280;18592;49.708;10.900;2023-06-10T01:15:13;98358.78;;;20.63;41.34
21433;BME280;18592;49.708;10.900;2023-06-10T01:17:15;98365.78;;;20.61;41.70
21433;BME280;18592;49.708;10.900;2023-06-10T01:19:19;98362.81;;;20.57;41.64
21433;BME280;18592;49.708;10.900;2023-06-10T01:21:22;98358.72;;;20.55;41.83
21433;BME280;18592;49.708;10.900;2023-06-10T01:23:28;98362.97;;;20.52;42.01
21433;BME280;18592;49.708;10.900;2023-06-10T01:25:30;98358.88;;;20.50;41.82
21433;BME280;18592;49.708;10.900;2023-06-10T01:27:37;98361.47;;;20.46;42.08
21433;BME280;18592;49.708;10.900;2023-06-10T01:29:50;98360.47;;;20.42;42.18
21433;BME280;18592;49.708;10.900;2023-06-10T01:32:03;98369.41;;;20.39;41.96
21433;BME280;18592;49.708;10.900;2023-06-10T01:34:12;98370.88;;;20.37;42.32
21433;BME280;18592;49.708;10.900;2023-06-10T01:36:19;98373.97;;;20.35;41.77
21433;BME280;18592;49.708;10.900;2023-06-10T01:38:27;98364.69;;;20.31;41.95
21433;BME280;18592;49.708;10.900;2023-06-10T01:40:30;98367.25;;;20.27;42.02
21433;BME280;18592;49.708;10.900;2023-06-10T01:42:33;98364.81;;;20.26;41.88
21433;BME280;18592;49.708;10.900;2023-06-10T01:44:40;98359.06;;;20.22;41.98
21433;BME280;18592;49.708;10.900;2023-06-10T01:46:43;98363.28;;;20.20;42.02
21433;BME280;18592;49.708;10.900;2023-06-10T01:48:45;98361.16;;;20.17;42.14
21433;BME280;18592;49.708;10.900;2023-06-10T01:50:47;98368.97;;;20.15;42.32
21433;BME280;18592;49.708;10.900;2023-06-10T01:52:48;98355.44;;;20.13;42.38
21433;BME280;18592;49.708;10.900;2023-06-10T01:54:52;98367.97;;;20.11;42.49
21433;BME280;18592;49.708;10.900;2023-06-10T01:56:55;98364.69;;;20.09;42.15
21433;BME280;18592;49.708;10.900;2023-06-10T01:58:57;98355.38;;;20.05;42.13
21433;BME280;18592;49.708;10.900;2023-06-10T02:01:01;98357.66;;;20.03;42.69
21433;BME280;18592;49.708;10.900;2023-06-10T02:03:03;98360.25;;;19.99;42.46
21433;BME280;18592;49.708;10.900;2023-06-10T02:05:06;98356.97;;;19.97;42.30
21433;BME280;18592;49.708;10.900;2023-06-10T02:07:08;98364.78;;;19.95;42.63
21433;BME280;18592;49.708;10.900;2023-06-10T02:09:10;98371.28;;;19.91;42.60
21433;BME280;18592;49.708;10.900;2023-06-10T02:11:12;98375.16;;;19.90;42.64
21433;BME280;18592;49.708;10.900;2023-06-10T02:13:18;98371.41;;;19.86;42.84
21433;BME280;18592;49.708;10.900;2023-06-10T02:15:20;98376.41;;;19.84;42.46
21433;BME280;18592;49.708;10.900;2023-06-10T02:17:21;98376.25;;;19.80;42.80
21433;BME280;18592;49.708;10.900;2023-06-10T02:19:24;98374.94;;;19.78;42.80
21433;BME280;18592;49.708;10.900;2023-06-10T02:21:28;98365.31;;;19.75;42.78
21433;BME280;18592;49.708;10.900;2023-06-10T02:23:29;98366.75;;;19.73;42.84
21433;BME280;18592;49.708;10.900;2023-06-10T02:25:31;98370.97;;;19.70;42.47
21433;BME280;18592;49.708;10.900;2023-06-10T02:27:33;98368.81;;;19.67;42.61
21433;BME280;18592;49.708;10.900;2023-06-10T02:29:34;98364.75;;;19.64;42.69
21433;BME280;18592;49.708;10.900;2023-06-10T02:31:36;98368.94;;;19.62;42.74
21433;BME280;18592;49.708;10.900;2023-06-10T02:33:39;98360.97;;;19.60;43.26
21433;BME280;18592;49.708;10.900;2023-06-10T02:35:42;98365.19;;;19.58;42.72
21433;BME280;18592;49.708;10.900;2023-06-10T02:37:44;98363.06;;;19.55;43.02
21433;BME280;18592;49.708;10.900;2023-06-10T02:39:53;98372.78;;;19.52;43.12
21433;BME280;18592;49.708;10.900;2023-06-10T02:41:58;98374.25;;;19.50;42.90
21433;BME280;18592;49.708;10.900;2023-06-10T02:44:00;98378.44;;;19.47;43.15
21433;BME280;18592;49.708;10.900;2023-06-10T02:46:02;98384.59;;;19.44;43.13
21433;BME280;18592;49.708;10.900;2023-06-10T02:48:06;98378.56;;;19.42;42.94
21433;BME280;18592;49.708;10.900;2023-06-10T02:50:11;98379.19;;;19.39;43.04
21433;BME280;18592;49.708;10.900;2023-06-10T02:52:23;98385.84;;;19.38;42.95
21433;BME280;18592;49.708;10.900;2023-06-10T02:54:25;98387.56;;;19.34;42.97
21433;BME280;18592;49.708;10.900;2023-06-10T02:56:30;98387.06;;;19.32;43.34
21433;BME280;18592;49.708;10.900;2023-06-10T02:58:35;98377.13;;;19.31;42.86
21433;BME280;18592;49.708;10.900;2023-06-10T03:00:38;98383.28;;;19.28;43.15
21433;BME280;18592;49.708;10.900;2023-06-10T03:02:45;98384.41;;;19.27;43.21
21433;BME280;18592;49.708;10.900;2023-06-10T03:04:49;98385.03;;;19.24;43.00
21433;BME280;18592;49.708;10.900;2023-06-10T03:06:53;98376.25;;;19.22;43.38
21433;BME280;18592;49.708;10.900;2023-06-10T03:09:04;98380.44;;;19.20;43.07
21433;BME280;18592;49.708;10.900;2023-06-10T03:11:05;98384.31;;;19.19;43.25
21433;BME280;18592;49.708;10.900;2023-06-10T03:13:09;98385.78;;;19.16;43.55
21433;BME280;18592;49.708;10.900;2023-06-10T03:15:17;98380.56;;;19.15;43.40
21433;BME280;18592;49.708;10.900;2023-06-10T03:17:19;98378.41;;;19.12;43.41
21433;BME280;18592;49.708;10.900;2023-06-10T03:19:21;98383.13;;;19.11;43.28
21433;BME280;18592;49.708;10.900;2023-06-10T03:21:58;98380.47;;;19.06;43.80
21433;BME280;18592;49.708;10.900;2023-06-10T03:24:12;98386.59;;;19.03;43.51
21433;BME280;18592;49.708;10.900;2023-06-10T03:26:14;98382.22;;;19.02;43.80
21433;BME280;18592;49.708;10.900;2023-06-10T03:28:21;98387.22;;;19.00;43.79
21433;BME280;18592;49.708;10.900;2023-06-10T03:30:23;98391.13;;;18.99;43.66
21433;BME280;18592;49.708;10.900;2023-06-10T03:32:25;98393.41;;;18.97;43.80
21433;BME280;18592;49.708;10.900;2023-06-10T03:34:27;98381.53;;;18.96;43.59
21433;BME280;18592;49.708;10.900;2023-06-10T03:36:29;98388.47;;;18.94;43.80
21433;BME280;18592;49.708;10.900;2023-06-10T03:38:34;98384.41;;;18.91;43.74
21433;BME280;18592;49.708;10.900;2023-06-10T03:40:37;98386.66;;;18.89;43.83
21433;BME280;18592;49.708;10.900;2023-06-10T03:42:42;98385.81;;;18.89;44.05
21433;BME280;18592;49.708;10.900;2023-06-10T03:44:50;98389.72;;;18.88;43.96
21433;BME280;18592;49.708;10.900;2023-06-10T03:46:52;98386.44;;;18.86;43.89
21433;BME280;18592;49.708;10.900;2023-06-10T03:48:57;98388.69;;;18.84;43.88
21433;BME280;18592;49.708;10.900;2023-06-10T03:51:03;98388.19;;;18.82;44.14
21433;BME280;18592;49.708;10.900;2023-06-10T03:53:05;98389.31;;;18.81;43.84
21433;BME280;18592;49.708;10.900;2023-06-10T03:55:08;98392.41;;;18.79;43.95
21433;BME280;18592;49.708;10.900;2023-06-10T03:57:10;98390.75;;;18.78;43.84
21433;BME280;18592;49.708;10.900;2023-06-10T03:59:12;98389.09;;;18.77;44.10
21433;BME280;18592;49.708;10.900;2023-06-10T04:01:14;98390.25;;;18.76;43.82
21433;BME280;18592;49.708;10.900;2023-06-10T04:03:19;98391.34;;;18.75;43.79
21433;BME280;18592;49.708;10.900;2023-06-10T04:05:25;98385.84;;;18.75;44.02
21433;BME280;18592;49.708;10.900;2023-06-10T04:07:27;98388.09;;;18.73;43.95
21433;BME280;18592;49.708;10.900;2023-06-10T04:09:31;98383.41;;;18.74;44.01
21433;BME280;18592;49.708;10.900;2023-06-10T04:11:36;98387.28;;;18.73;44.17
21433;BME280;18592;49.708;10.900;2023-06-10T04:13:37;98376.22;;;18.73;43.94
21433;BME280;18592;49.708;10.900;2023-06-10T04:15:39;98376.53;;;18.71;43.86
21433;BME280;18592;49.708;10.900;2023-06-10T04:17:45;98385.66;;;18.72;43.91
21433;BME280;18592;49.708;10.900;2023-06-10T04:19:47;98384.50;;;18.73;44.17
21433;BME280;18592;49.708;10.900;2023-06-10T04:21:48;98390.03;;;18.73;43.98
21433;BME280;18592;49.708;10.900;2023-06-10T04:23:50;98388.09;;;18.73;44.06
21433;BME280;18592;49.708;10.900;2023-06-10T04:25:53;98388.09;;;18.73;44.20
21433;BME280;18592;49.708;10.900;2023-06-10T04:27:55;98379.50;;;18.75;44.32
21433;BME280;18592;49.708;10.900;2023-06-10T04:29:56;98375.63;;;18.76;44.25
21433;BME280;18592;49.708;10.900;2023-06-10T04:31:58;98380.31;;;18.75;44.04
21433;BME280;18592;49.708;10.900;2023-06-10T04:34:01;98380.03;;;18.77;44.23
21433;BME280;18592;49.708;10.900;2023-06-10T04:36:06;98379.69;;;18.78;44.30
21433;BME280;18592;49.708;10.900;2023-06-10T04:38:10;98380.53;;;18.79;44.34
21433;BME280;18592;49.708;10.900;2023-06-10T04:40:16;98383.28;;;18.79;44.10
21433;BME280;18592;49.708;10.900;2023-06-10T04:42:18;98383.78;;;18.81;44.25
21433;BME280;18592;49.708;10.900;2023-06-10T04:44:21;98382.34;;;18.83;44.26
21433;BME280;18592;49.708;10.900;2023-06-10T04:46:23;98372.63;;;18.86;44.12
21433;BME280;18592;49.708;10.900;2023-06-10T04:48:26;98388.09;;;18.87;44.30
21433;BME280;18592;49.708;10.900;2023-06-10T04:50:28;98385.81;;;18.89;44.16
21433;BME280;18592;49.708;10.900;2023-06-10T04:52:30;98379.16;;;18.90;44.21
21433;BME280;18592;49.708;10.900;2023-06-10T04:54:31;98392.34;;;18.93;44.16
21433;BME280;18592;49.708;10.900;2023-06-10T04:56:33;98390.09;;;18.95;44.24
21433;BME280;18592;49.708;10.900;2023-06-10T04:58:35;98392.25;;;18.98;44.31
21433;BME280;18592;49.708;10.900;2023-06-10T05:00:40;98394.41;;;19.01;44.29
21433;BME280;18592;49.708;10.900;2023-06-10T05:02:44;98403.69;;;19.05;44.79
21433;BME280;18592;49.708;10.900;2023-06-10T05:04:46;98401.47;;;19.07;44.40
21433;BME280;18592;49.708;10.900;2023-06-10T05:06:48;98406.88;;;19.12;44.58
21433;BME280;18592;49.708;10.900;2023-06-10T05:08:49;98416.16;;;19.16;44.41
21433;BME280;18592;49.708;10.900;2023-06-10T05:10:51;98427.44;;;19.20;44.34
21433;BME280;18592;49.708;10.900;2023-06-10T05:12:53;98424.84;;;19.23;44.74
21433;BME280;18592;49.708;10.900;2023-06-10T05:14:54;98425.06;;;19.27;44.59
21433;BME280;18592;49.708;10.900;2023-06-10T05:16:56;98423.00;;;19.32;45.79
21433;BME280;18592;49.708;10.900;2023-06-10T05:19:00;98421.25;;;19.36;46.26
21433;BME280;18592;49.708;10.900;2023-06-10T05:21:02;98429.44;;;19.41;46.25
21433;BME280;18592;49.708;10.900;2023-06-10T05:23:04;98430.66;;;19.49;46.69
21433;BME280;18592;49.708;10.900;2023-06-10T05:25:06;98420.50;;;19.58;45.83
21433;BME280;18592;49.708;10.900;2023-06-10T05:27:09;98428.84;;;19.67;46.72
21433;BME280;18592;49.708;10.900;2023-06-10T05:29:11;98424.72;;;19.78;46.80
21433;BME280;18592;49.708;10.900;2023-06-10T05:31:12;98417.78;;;19.89;46.57
21433;BME280;18592;49.708;10.900;2023-06-10T05:33:14;98425.81;;;19.99;46.16
21433;BME280;18592;49.708;10.900;2023-06-10T05:35:15;98418.59;;;20.11;46.45
21433;BME280;18592;49.708;10.900;2023-06-10T05:37:20;98420.28;;;20.21;46.27
21433;BME280;18592;49.708;10.900;2023-06-10T05:39:21;98419.72;;;20.33;45.86
21433;BME280;18592;49.708;10.900;2023-06-10T05:41:23;98413.91;;;20.43;45.83
21433;BME280;18592;49.708;10.900;2023-06-10T05:43:24;98418.34;;;20.52;45.83
21433;BME280;18592;49.708;10.900;2023-06-10T05:45:30;98413.34;;;20.63;45.75
21433;BME280;18592;49.708;10.900;2023-06-10T05:47:31;98419.09;;;20.75;45.60
21433;BME280;18592;49.708;10.900;2023-06-10T05:49:33;98418.50;;;20.86;45.56
21433;BME280;18592;49.708;10.900;2023-06-10T05:51:35;98413.13;;;20.99;45.73
21433;BME280;18592;49.708;10.900;2023-06-10T05:53:39;98419.38;;;21.13;45.71
21433;BME280;18592;49.708;10.900;2023-06-10T05:55:42;98416.50;;;21.26;45.77
21433;BME280;18592;49.708;10.900;2023-06-10T05:57:44;98416.34;;;21.40;45.71
21433;BME280;18592;49.708;10.900;2023-06-10T05:59:53;98412.75;;;21.57;46.12
21433;BME280;18592;49.708;10.900;2023-06-10T06:01:58;98407.53;;;21.72;45.89
21433;BME280;18592;49.708;10.900;2023-06-10T06:04:03;98408.19;;;21.86;46.13
21433;BME280;18592;49.708;10.900;2023-06-10T06:06:08;98413.75;;;22.03;45.95
21433;BME280;18592;49.708;10.900;2023-06-10T06:08:10;98413.72;;;22.21;46.22
21433;BME280;18592;49.708;10.900;2023-06-10T06:10:19;98407.75;;;22.39;46.19
21433;BME280;18592;49.708;10.900;2023-06-10T06:12:20;98407.38;;;22.58;46.28
21433;BME280;18592;49.708;10.900;2023-06-10T06:14:22;98413.38;;;22.77;46.30
21433;BME280;18592;49.708;10.900;2023-06-10T06:16:24;98414.59;;;22.97;46.34
21433;BME280;18592;49.708;10.900;2023-06-10T06:18:25;98411.03;;;23.17;46.58
21433;BME280;18592;49.708;10.900;2023-06-10T06:20:27;98419.44;;;23.38;46.50
21433;BME280;18592;49.708;10.900;2023-06-10T06:22:31;98418.66;;;23.58;46.35
21433;BME280;18592;49.708;10.900;2023-06-10T06:24:33;98411.44;;;23.77;46.25
21433;BME280;18592;49.708;10.900;2023-06-10T06:26:35;98408.13;;;23.96;46.04
21433;BME280;18592;49.708;10.900;2023-06-10T06:28:39;98416.03;;;24.15;46.16
21433;BME280;18592;49.708;10.900;2023-06-10T06:30:41;98410.72;;;24.34;46.07
21433;BME280;18592;49.708;10.900;2023-06-10T06:32:43;98409.72;;;24.50;46.02
21433;BME280;18592;49.708;10.900;2023-06-10T06:34:44;98417.06;;;24.67;45.92
21433;BME280;18592;49.708;10.900;2023-06-10T06:36:46;98409.22;;;24.81;45.62
21433;BME280;18592;49.708;10.900;2023-06-10T06:38:48;98411.78;;;24.98;45.49
21433;BME280;18592;49.708;10.900;2023-06-10T06:40:50;98413.03;;;25.13;45.63
21433;BME280;18592;49.708;10.900;2023-06-10T06:42:52;98417.56;;;25.30;45.42
21433;BME280;18592;49.708;10.900;2023-06-10T06:45:07;98416.53;;;25.46;45.57
21433;BME280;18592;49.708;10.900;2023-06-10T06:47:09;98409.38;;;25.61;45.16
21433;BME280;18592;49.708;10.900;2023-06-10T06:49:14;98404.25;;;25.75;45.13
21433;BME280;18592;49.708;10.900;2023-06-10T06:51:16;98398.72;;;25.91;45.15
21433;BME280;18592;49.708;10.900;2023-06-10T06:53:17;98404.69;;;26.05;45.46
21433;BME280;18592;49.708;10.900;2023-06-10T06:55:19;98401.88;;;26.17;45.18
21433;BME280;18592;49.708;10.900;2023-06-10T06:57:22;98401.78;;;26.29;45.13
21433;BME280;18592;49.708;10.900;2023-06-10T06:59:30;98397.31;;;26.40;44.54
21433;BME280;18592;49.708;10.900;2023-06-10T07:01:33;98402.81;;;26.52;44.46
21433;BME280;18592;49.708;10.900;2023-06-10T07:03:35;98404.28;;;26.62;44.67
21433;BME280;18592;49.708;10.900;2023-06-10T07:05:38;98407.34;;;26.72;44.52
21433;BME280;18592;49.708;10.900;2023-06-10T07:07:43;98405.69;;;26.83;44.04
21433;BME280;18592;49.708;10.900;2023-06-10T07:09:49;98402.34;;;26.93;44.21
21433;BME280;18592;49.708;10.900;2023-06-10T07:11:51;98416.94;;;27.02;43.88
21433;BME280;18592;49.708;10.900;2023-06-10T07:13:53;98398.81;;;27.12;43.57
21433;BME280;18592;49.708;10.900;2023-06-10T07:15:55;98404.63;;;27.23;43.73
21433;BME280;18592;49.708;10.900;2023-06-10T07:18:03;98410.03;;;27.31;43.65
21433;BME280;18592;49.708;10.900;2023-06-10T07:20:12;98407.09;;;27.40;43.63
21433;BME280;18592;49.708;10.900;2023-06-10T07:22:14;98404.88;;;27.49;43.44
21433;BME280;18592;49.708;10.900;2023-06-10T07:24:15;98405.13;;;27.59;43.04
21433;BME280;18592;49.708;10.900;2023-06-10T07:26:22;98404.09;;;27.67;42.74
21433;BME280;18592;49.708;10.900;2023-06-10T07:28:23;98409.91;;;27.78;43.12
21433;BME280;18592;49.708;10.900;2023-06-10T07:30:28;98404.91;;;27.87;42.94
21433;BME280;18592;49.708;10.900;2023-06-10T07:32:30;98401.88;;;27.96;42.87
21433;BME280;18592;49.708;10.900;2023-06-10T07:34:31;98401.69;;;28.04;42.87
21433;BME280;18592;49.708;10.900;2023-06-10T07:36:33;98401.91;;;28.15;42.72
21433;BME280;18592;49.708;10.900;2023-06-10T07:38:34;98396.06;;;28.23;42.56
21433;BME280;18592;49.708;10.900;2023-06-10T07:40:36;98405.50;;;28.34;42.56
21433;BME280;18592;49.708;10.900;2023-06-10T07:42:38;98405.69;;;28.45;42.61
21433;BME280;18592;49.708;10.900;2023-06-10T07:44:40;98387.44;;;28.55;42.27
21433;BME280;18592;49.708;10.900;2023-06-10T07:46:42;98398.06;;;28.65;42.40
21433;BME280;18592;49.708;10.900;2023-06-10T07:48:43;98397.44;;;28.75;42.42
21433;BME280;18592;49.708;10.900;2023-06-10T07:50:45;98396.81;;;28.85;42.48
21433;BME280;18592;49.708;10.900;2023-06-10T07:52:51;98391.78;;;28.94;42.39
21433;BME280;18592;49.708;10.900;2023-06-10T07:54:54;98392.75;;;29.05;42.11
21433;BME280;18592;49.708;10.900;2023-06-10T07:56:56;98395.34;;;29.17;42.13
21433;BME280;18592;49.708;10.900;2023-06-10T07:58:57;98389.09;;;29.27;41.90
21433;BME280;18592;49.708;10.900;2023-06-10T08:01:02;98394.88;;;29.38;41.62
21433;BME280;18592;49.708;10.900;2023-06-10T08:03:09;98401.47;;;29.49;41.25
21433;BME280;18592;49.708;10.900;2023-06-10T08:05:10;98407.25;;;29.60;40.92
21433;BME280;18592;49.708;10.900;2023-06-10T08:07:13;98398.16;;;29.70;40.62
21433;BME280;18592;49.708;10.900;2023-06-10T08:09:15;98398.69;;;29.79;40.30
21433;BME280;18592;49.708;10.900;2023-06-10T08:11:42;98398.84;;;29.89;40.46
21433;BME280;18592;49.708;10.900;2023-06-10T08:13:43;98391.38;;;30.00;40.43
21433;BME280;18592;49.708;10.900;2023-06-10T08:15:45;98384.25;;;30.13;40.54
21433;BME280;18592;49.708;10.900;2023-06-10T08:17:51;98391.66;;;30.25;40.41
21433;BME280;18592;49.708;10.900;2023-06-10T08:19:53;98387.78;;;30.37;40.57
21433;BME280;18592;49.708;10.900;2023-06-10T08:21:55;98383.88;;;30.48;40.49
21433;BME280;18592;49.708;10.900;2023-06-10T08:24:09;98382.38;;;30.61;40.34
21433;BME280;18592;49.708;10.900;2023-06-10T08:26:11;98382.13;;;30.73;40.23
21433;BME280;18592;49.708;10.900;2023-06-10T08:28:13;98387.44;;;30.86;40.17
21433;BME280;18592;49.708;10.900;2023-06-10T08:30:17;98383.16;;;30.99;40.17
21433;BME280;18592;49.708;10.900;2023-06-10T08:32:24;98384.50;;;31.12;40.21
21433;BME280;18592;49.708;10.900;2023-06-10T08:34:29;98376.53;;;31.24;40.39
21433;BME280;18592;49.708;10.900;2023-06-10T08:36:31;98378.19;;;31.36;40.40
21433;BME280;18592;49.708;10.900;2023-06-10T08:38:32;98380.34;;;31.50;40.42
21433;BME280;18592;49.708;10.900;2023-06-10T08:40:37;98376.38;;;31.61;40.41
21433;BME280;18592;49.708;10.900;2023-06-10T08:42:49;98378.84;;;31.73;39.71
21433;BME280;18592;49.708;10.900;2023-06-10T08:44:58;98382.94;;;31.86;40.25
21433;BME280;18592;49.708;10.900;2023-06-10T08:47:07;98383.44;;;31.99;40.18
21433;BME280;18592;49.708;10.900;2023-06-10T08:49:18;98386.69;;;32.12;39.67
21433;BME280;18592;49.708;10.900;2023-06-10T08:51:24;98380.69;;;32.24;39.90
21433;BME280;18592;49.708;10.900;2023-06-10T08:53:27;98379.53;;;32.35;39.57
21433;BME280;18592;49.708;10.900;2023-06-10T08:55:41;98371.47;;;32.48;39.46
21433;BME280;18592;49.708;10.900;2023-06-10T08:57:43;98365.47;;;32.56;39.55
21433;BME280;18592;49.708;10.900;2023-06-10T08:59:47;98367.09;;;32.68;39.44
21433;BME280;18592;49.708;10.900;2023-06-10T09:01:52;98365.50;;;32.78;39.31
21433;BME280;18592;49.708;10.900;2023-06-10T09:03:54;98377.63;;;32.89;39.17
21433;BME280;18592;49.708;10.900;2023-06-10T09:05:56;98367.91;;;33.00;39.36
21433;BME280;18592;49.708;10.900;2023-06-10T09:07:59;98371.97;;;33.10;38.28
21433;BME280;18592;49.708;10.900;2023-06-10T09:10:03;98360.25;;;33.18;38.48
21433;BME280;18592;49.708;10.900;2023-06-10T09:12:06;98364.69;;;33.30;38.68
21433;BME280;18592;49.708;10.900;2023-06-10T09:14:08;98365.47;;;33.38;38.55
21433;BME280;18592;49.708;10.900;2023-06-10T09:16:09;98360.59;;;33.45;38.17
21433;BME280;18592;49.708;10.900;2023-06-10T09:18:13;98362.63;;;33.52;38.04
21433;BME280;18592;49.708;10.900;2023-06-10T09:20:14;98362.22;;;33.60;37.58
21433;BME280;18592;49.708;10.900;2023-06-10T09:22:19;98359.38;;;33.67;37.62
21433;BME280;18592;49.708;10.900;2023-06-10T09:24:25;98360.16;;;33.75;37.35
21433;BME280;18592;49.708;10.900;2023-06-10T09:26:29;98365.78;;;33.82;37.52
21433;BME280;18592;49.708;10.900;2023-06-10T09:28:33;98350.41;;;33.90;37.58
21433;BME280;18592;49.708;10.900;2023-06-10T09:30:38;98352.78;;;33.99;37.37
21433;BME280;18592;49.708;10.900;2023-06-10T09:32:39;98354.38;;;34.07;37.45
21433;BME280;18592;49.708;10.900;2023-06-10T09:34:41;98352.72;;;34.16;37.37
21433;BME280;18592;49.708;10.900;2023-06-10T09:36:43;98350.25;;;34.25;37.36
21433;BME280;18592;49.708;10.900;2023-06-10T09:38:46;98354.25;;;34.35;36.56
21433;BME280;18592;49.708;10.900;2023-06-10T09:40:51;98343.66;;;34.42;36.79
21433;BME280;18592;49.708;10.900;2023-06-10T09:42:57;98342.78;;;34.53;36.39
21433;BME280;18592;49.708;10.900;2023-06-10T09:45:00;98344.38;;;34.61;36.65
21433;BME280;18592;49.708;10.900;2023-06-10T09:47:02;98348.38;;;34.67;36.21
21433;BME280;18592;49.708;10.900;2023-06-10T09:49:04;98353.59;;;34.72;36.07
21433;BME280;18592;49.708;10.900;2023-06-10T09:51:09;98345.09;;;34.75;36.14
21433;BME280;18592;49.708;10.900;2023-06-10T09:53:13;98344.25;;;34.78;35.78
21433;BME280;18592;49.708;10.900;2023-06-10T09:55:17;98336.16;;;34.77;35.17
21433;BME280;18592;49.708;10.900;2023-06-10T09:57:20;98345.88;;;34.76;34.79
21433;BME280;18592;49.708;10.900;2023-06-10T09:59:29;98347.53;;;34.70;34.22
21433;BME280;18592;49.708;10.900;2023-06-10T10:01:34;98350.81;;;34.65;34.35
21433;BME280;18592;49.708;10.900;2023-06-10T10:03:43;98350.06;;;34.57;33.23
21433;BME280;18592;49.708;10.900;2023-06-10T10:05:47;98350.50;;;34.48;34.00
21433;BME280;18592;49.708;10.900;2023-06-10T10:07:58;98339.22;;;34.41;33.64
21433;BME280;18592;49.708;10.900;2023-06-10T10:10:02;98343.28;;;34.37;33.72
21433;BME280;18592;49.708;10.900;2023-06-10T10:12:14;98348.59;;;34.31;33.04
21433;BME280;18592;49.708;10.900;2023-06-10T10:14:16;98342.16;;;34.27;33.67
21433;BME280;18592;49.708;10.900;2023-06-10T10:16:37;98338.53;;;34.23;33.60
21433;BME280;18592;49.708;10.900;2023-06-10T10:18:46;98339.38;;;34.20;33.34
21433;BME280;18592;49.708;10.900;2023-06-10T10:20:51;98338.53;;;34.23;33.94
21433;BME280;18592;49.708;10.900;2023-06-10T10:22:57;98340.13;;;34.24;34.24
21433;BME280;18592;49.708;10.900;2023-06-10T10:25:02;98328.81;;;34.28;33.90
21433;BME280;18592;49.708;10.900;2023-06-10T10:27:11;98343.34;;;34.30;33.49
21433;BME280;18592;49.708;10.900;2023-06-10T10:29:29;98339.72;;;34.29;33.19
21433;BME280;18592;49.708;10.900;2023-06-10T10:31:33;98340.91;;;34.28;33.25
21433;BME280;18592;49.708;10.900;2023-06-10T10:33:45;98338.53;;;34.23;33.04
21433;BME280;18592;49.708;10.900;2023-06-10T10:35:49;98343.84;;;34.18;32.67
21433;BME280;18592;49.708;10.900;2023-06-10T10:37:53;98346.28;;;34.12;32.77
21433;BME280;18592;49.708;10.900;2023-06-10T10:39:55;98345.09;;;34.06;32.64
21433;BME280;18592;49.708;10.900;2023-06-10T10:41:58;98340.66;;;33.98;32.24
21433;BME280;18592;49.708;10.900;2023-06-10T10:44:00;98356.06;;;33.90;32.21
21433;BME280;18592;49.708;10.900;2023-06-10T10:46:12;98348.00;;;33.81;31.95
21433;BME280;18592;49.708;10.900;2023-06-10T10:48:14;98344.41;;;33.74;32.32